Time;durP1;ratioP1;P1;durP2;ratioP2;P2;SDS_P1;SDS_P2;PMS_P1;PMS_P2;Temp;Humidity;BMP_temperature;BMP_pressure;BME280_temperature;BME280_humidity;BME280_pressure;Samples;Min_cycle;Max_cycle;Signal;HPM_P1;HPM_P2
2023/06/01 00:00:29;;;;;;;17.98;8.25;;;;;;;-142.75;100.00;77637.34;5028072;28;20025;-66
2023/06/01 00:02:55;;;;;;;15.77;7.25;;;;;;;-142.75;100.00;77647.19;5048232;28;20032;-64
2023/06/01 00:05:20;;;;;;;15.68;7.70;;;;;;;-142.75;100.00;77653.09;5047810;28;20032;-65
2023/06/01 00:07:46;;;;;;;12.85;7.20;;;;;;;-142.75;100.00;77657.03;5047849;28;20017;-65
2023/06/01 00:10:12;;;;;;;16.00;7.43;;;;;;;-142.75;100.00;77655.06;5047801;28;20017;-66
2023/06/01 00:12:37;;;;;;;15.30;7.50;;;;;;;-142.75;100.00;77649.16;5047878;28;20029;-64
2023/06/01 00:15:03;;;;;;;15.07;7.53;;;;;;;-142.75;100.00;77651.13;5047697;28;20104;-65
2023/06/01 00:17:29;;;;;;;14.25;7.40;;;;;;;-142.75;100.00;77631.44;5040192;28;20021;-65
2023/06/01 00:19:54;;;;;;;12.20;7.22;;;;;;;-142.75;100.00;77605.84;5047324;28;20032;-65
2023/06/01 00:22:20;;;;;;;14.73;7.45;;;;;;;-142.75;100.00;77599.94;5047544;28;20048;-65
2023/06/01 00:24:45;;;;;;;16.67;7.97;;;;;;;-142.75;100.00;77597.97;5062802;28;20024;-65
2023/06/01 00:27:10;;;;;;;14.88;6.88;;;;;;;-142.75;100.00;77592.06;5047222;28;20091;-65
2023/06/01 00:29:35;;;;;;;13.38;6.85;;;;;;;-142.75;100.00;77590.09;5039089;28;20033;-66
2023/06/01 00:32:01;;;;;;;15.90;6.90;;;;;;;-142.75;100.00;77601.91;5027907;28;20049;-64
2023/06/01 00:34:26;;;;;;;16.30;6.60;;;;;;;-142.75;100.00;77597.97;5027740;28;20514;-66
2023/06/01 00:36:51;;;;;;;13.80;6.03;;;;;;;-142.75;100.00;77597.97;5027443;28;20018;-66
2023/06/01 00:39:17;;;;;;;13.38;5.72;;;;;;;-142.75;100.00;77596.00;5027065;28;20035;-65
2023/06/01 00:41:42;;;;;;;12.43;5.90;;;;;;;-142.75;100.00;77592.06;5027312;28;20021;-66
2023/06/01 00:44:07;;;;;;;8.98;5.15;;;;;;;-142.75;100.00;77590.09;5036437;28;20112;-65
2023/06/01 00:46:34;;;;;;;12.60;5.13;;;;;;;-142.75;100.00;77586.16;5046878;28;20104;-66
2023/06/01 00:48:59;;;;;;;13.05;5.25;;;;;;;-142.75;100.00;77578.28;5047019;28;20544;-65
2023/06/01 00:51:25;;;;;;;13.23;4.88;;;;;;;-142.75;100.00;77584.19;5046874;28;20024;-67
2023/06/01 00:53:51;;;;;;;13.48;4.88;;;;;;;-142.75;100.00;77590.09;5058733;28;20491;-66
2023/06/01 00:56:20;;;;;;;9.32;4.63;;;;;;;-142.75;100.00;77596.00;5027023;28;20045;-66
2023/06/01 00:58:45;;;;;;;12.05;5.70;;;;;;;-142.75;100.00;77621.59;5028479;28;20053;-66
2023/06/01 01:01:18;;;;;;;14.52;5.70;;;;;;;-142.75;100.00;77623.56;5026855;28;20071;-66
2023/06/01 01:03:46;;;;;;;10.00;4.55;;;;;;;-142.75;100.00;77621.59;5027471;28;20658;-65
2023/06/01 01:06:25;;;;;;;12.90;5.40;;;;;;;-142.75;100.00;77625.53;5026726;28;20509;-66
2023/06/01 01:09:07;;;;;;;10.20;4.18;;;;;;;-142.75;100.00;77637.34;5026764;28;20037;-65
2023/06/01 01:11:34;;;;;;;7.68;4.47;;;;;;;-142.75;100.00;77633.41;5029197;28;20465;-66
2023/06/01 01:14:22;;;;;;;10.25;5.10;;;;;;;-142.75;100.00;77633.41;5046601;28;20040;-65
2023/06/01 01:17:02;;;;;;;12.02;4.28;;;;;;;-142.75;100.00;77623.56;5061814;28;20021;-66
2023/06/01 01:19:42;;;;;;;8.65;4.55;;;;;;;-142.75;100.00;77639.31;5046244;28;20049;-66
2023/06/01 01:22:43;;;;;;;8.40;4.32;;;;;;;-142.75;100.00;77615.69;5025956;28;20081;-65
2023/06/01 01:25:27;;;;;;;13.98;4.88;;;;;;;-142.75;100.00;77621.59;5043898;22;20033;-64
2023/06/01 01:28:20;;;;;;;10.32;4.90;;;;;;;-142.75;100.00;77621.59;5043374;28;20163;-64
2023/06/01 01:30:46;;;;;;;11.23;5.28;;;;;;;-142.75;100.00;77623.56;5045529;28;20029;-64
2023/06/01 01:33:13;;;;;;;11.13;5.13;;;;;;;-142.75;100.00;77623.56;5047150;28;20017;-64
2023/06/01 01:35:38;;;;;;;11.82;4.80;;;;;;;-142.75;100.00;77613.72;5029031;28;20108;-64
2023/06/01 01:38:04;;;;;;;10.68;5.35;;;;;;;-142.75;100.00;77607.81;5041558;28;20109;-66
2023/06/01 01:40:30;;;;;;;13.50;5.80;;;;;;;-142.75;100.00;77603.88;5025891;28;20597;-66
2023/06/01 01:42:55;;;;;;;11.60;5.22;;;;;;;-142.75;100.00;77596.00;5025107;28;20445;-63
2023/06/01 01:45:21;;;;;;;12.35;5.10;;;;;;;-142.75;100.00;77597.97;5026394;28;20107;-64
2023/06/01 01:48:16;;;;;;;9.00;4.88;;;;;;;-142.75;100.00;77590.09;5025271;28;20120;-64
2023/06/01 01:50:50;;;;;;;9.50;4.53;;;;;;;-142.75;100.00;77580.25;5025677;28;20075;-64
2023/06/01 01:53:16;;;;;;;9.50;4.53;;;;;;;-142.75;100.00;77594.03;5026040;28;20067;-62
2023/06/01 01:55:42;;;;;;;11.88;5.90;;;;;;;-142.75;100.00;77633.41;5026178;28;20021;-61
2023/06/01 01:58:08;;;;;;;9.88;4.97;;;;;;;-142.75;100.00;77643.25;5026096;28;20426;-62
2023/06/01 02:00:34;;;;;;;9.48;5.50;;;;;;;-142.75;100.00;77649.16;5025727;28;20079;-61
2023/06/01 02:03:00;;;;;;;11.90;5.47;;;;;;;-142.75;100.00;77649.16;5026803;28;20026;-63
2023/06/01 02:05:28;;;;;;;12.05;6.10;;;;;;;-142.75;100.00;77651.13;5024519;28;20116;-63
2023/06/01 02:07:53;;;;;;;11.95;5.78;;;;;;;-142.75;100.00;77633.41;5025599;28;20029;-62
2023/06/01 02:10:18;;;;;;;13.63;5.97;;;;;;;-142.75;100.00;77635.38;5025135;28;20022;-62
2023/06/01 02:12:44;;;;;;;10.98;5.15;;;;;;;-142.75;100.00;77625.53;5025628;28;20403;-62
2023/06/01 02:15:09;;;;;;;11.18;5.82;;;;;;;-142.75;100.00;77641.28;5024062;28;20029;-61
2023/06/01 02:17:37;;;;;;;10.85;5.07;;;;;;;-142.75;100.00;77641.28;5025700;28;20057;-63
2023/06/01 02:20:03;;;;;;;10.63;4.80;;;;;;;-142.75;100.00;77645.22;5025068;28;20033;-65
2023/06/01 02:22:28;;;;;;;10.93;5.20;;;;;;;-142.75;100.00;77633.41;5011629;28;20056;-65
2023/06/01 02:24:53;;;;;;;9.50;5.20;;;;;;;-142.75;100.00;77647.19;5025548;28;20542;-64
2023/06/01 02:27:18;;;;;;;10.35;5.57;;;;;;;-142.75;100.00;77647.19;5025462;28;20487;-65
2023/06/01 02:29:44;;;;;;;10.35;5.72;;;;;;;-142.75;100.00;77666.88;5025521;28;20612;-62
2023/06/01 02:32:09;;;;;;;9.65;4.97;;;;;;;-142.75;100.00;77659.00;5025779;28;20029;-64
2023/06/01 02:34:36;;;;;;;11.98;6.05;;;;;;;-142.75;100.00;77674.75;5025477;28;20108;-64
2023/06/01 02:37:02;;;;;;;14.65;4.80;;;;;;;-142.75;100.00;77655.06;5025564;28;20032;-60
2023/06/01 02:39:27;;;;;;;15.98;6.03;;;;;;;-142.75;100.00;77647.19;5025320;28;20401;-63
2023/06/01 02:41:52;;;;;;;12.35;4.97;;;;;;;-142.75;100.00;77653.09;5024310;28;20025;-62
2023/06/01 02:44:18;;;;;;;11.10;4.82;;;;;;;-142.75;100.00;77657.03;5025264;28;20741;-63
2023/06/01 02:46:43;;;;;;;13.80;5.05;;;;;;;-142.75;100.00;77647.19;5025254;28;20548;-62
2023/06/01 02:49:08;;;;;;;9.05;4.72;;;;;;;-142.75;100.00;77649.16;5023357;28;20561;-61
2023/06/01 02:51:34;;;;;;;12.77;5.63;;;;;;;-142.75;100.00;77645.22;5024816;28;20056;-64
2023/06/01 02:54:00;;;;;;;10.48;4.78;;;;;;;-142.75;100.00;77645.22;5025430;28;20022;-64
2023/06/01 02:56:26;;;;;;;10.55;5.03;;;;;;;-142.75;100.00;77653.09;5018411;28;20391;-61
2023/06/01 02:58:51;;;;;;;13.05;4.55;;;;;;;-142.75;100.00;77651.13;5024875;28;20021;-62
2023/06/01 03:01:17;;;;;;;8.73;4.82;;;;;;;-142.75;100.00;77651.13;5024561;28;20021;-63
2023/06/01 03:03:44;;;;;;;11.60;4.78;;;;;;;-142.75;100.00;77657.03;5025607;28;20495;-64
2023/06/01 03:06:09;;;;;;;15.05;5.15;;;;;;;-142.75;100.00;77651.13;5020568;28;20499;-64
2023/06/01 03:08:35;;;;;;;9.07;4.43;;;;;;;-142.75;100.00;77659.00;5016554;28;20034;-63
2023/06/01 03:11:03;;;;;;;11.88;4.85;;;;;;;-142.75;100.00;77651.13;5016335;28;20658;-62
2023/06/01 03:13:28;;;;;;;10.70;5.03;;;;;;;-142.75;100.00;77660.97;5025286;28;20033;-64
2023/06/01 03:15:54;;;;;;;10.05;4.95;;;;;;;-142.75;100.00;77668.84;5024770;28;20029;-63
2023/06/01 03:18:19;;;;;;;11.40;5.18;;;;;;;-142.75;100.00;77653.09;5024438;28;20017;-64
2023/06/01 03:20:47;;;;;;;13.00;5.78;;;;;;;-142.75;100.00;77662.94;5024262;28;20026;-63
2023/06/01 03:23:12;;;;;;;11.38;6.20;;;;;;;-142.75;100.00;77680.66;5024847;28;20025;-63
2023/06/01 03:25:38;;;;;;;15.07;5.57;;;;;;;-142.75;100.00;77684.59;5024713;28;20075;-62
2023/06/01 03:28:03;;;;;;;16.73;5.18;;;;;;;-142.75;100.00;77664.91;5023150;28;20375;-64
2023/06/01 03:30:28;;;;;;;14.80;5.95;;;;;;;-142.75;100.00;77672.78;5024789;28;20072;-63
2023/06/01 03:32:54;;;;;;;10.50;6.03;;;;;;;-142.75;100.00;77670.81;5025451;28;20021;-63
2023/06/01 03:35:19;;;;;;;11.82;5.70;;;;;;;-142.75;100.00;77666.88;5024444;28;20098;-63
2023/06/01 03:37:46;;;;;;;11.93;5.30;;;;;;;-142.75;100.00;77672.78;5023030;28;20049;-61
2023/06/01 03:40:11;;;;;;;13.80;5.75;;;;;;;-142.75;100.00;77653.09;5024492;28;20112;-63
2023/06/01 03:42:43;;;;;;;12.32;4.95;;;;;;;-142.75;100.00;77662.94;5024977;28;20109;-61
2023/06/01 03:45:10;;;;;;;12.52;5.32;;;;;;;-142.75;100.00;77645.22;5023856;28;20025;-60
2023/06/01 03:47:36;;;;;;;7.60;4.25;;;;;;;-142.75;100.00;77641.28;5024417;28;20117;-65
2023/06/01 03:50:03;;;;;;;15.02;4.82;;;;;;;-142.75;100.00;77635.38;5024447;28;20116;-63
2023/06/01 03:52:29;;;;;;;11.35;4.93;;;;;;;-142.75;100.00;77637.34;5024835;28;20100;-63
2023/06/01 03:54:56;;;;;;;10.35;5.40;;;;;;;-142.75;100.00;77651.13;5028005;28;20029;-63
2023/06/01 03:57:22;;;;;;;13.73;5.15;;;;;;;-142.75;100.00;77674.75;5028170;28;20474;-63
2023/06/01 03:59:47;;;;;;;13.60;5.43;;;;;;;-142.75;100.00;77657.03;5027920;28;20052;-61
2023/06/01 04:02:13;;;;;;;11.60;4.43;;;;;;;-142.75;100.00;77641.28;5028244;28;20053;-64
2023/06/01 04:04:40;;;;;;;15.32;5.07;;;;;;;-142.75;100.00;77653.09;5028002;28;20079;-63
2023/06/01 04:07:07;;;;;;;13.60;4.45;;;;;;;-142.75;100.00;77637.34;5027797;28;20025;-62
2023/06/01 04:09:32;;;;;;;11.65;4.65;;;;;;;-142.75;100.00;77674.75;5013679;28;20018;-61
2023/06/01 04:11:58;;;;;;;13.82;4.95;;;;;;;-142.75;100.00;77688.53;5008289;28;20100;-62
2023/06/01 04:14:23;;;;;;;13.10;5.07;;;;;;;-142.75;100.00;77680.66;5008298;28;20053;-63
2023/06/01 04:16:48;;;;;;;11.55;5.03;;;;;;;-142.75;100.00;77676.72;5023596;28;20065;-65
2023/06/01 04:19:16;;;;;;;9.45;4.35;;;;;;;-142.75;100.00;77670.81;5007655;28;20032;-62
2023/06/01 04:21:43;;;;;;;11.80;5.55;;;;;;;-142.75;100.00;77686.56;5008078;28;20502;-62
2023/06/01 04:24:09;;;;;;;10.52;4.70;;;;;;;-142.75;100.00;77692.47;5007392;28;20112;-63
2023/06/01 04:26:36;;;;;;;8.20;4.53;;;;;;;-142.75;100.00;77678.69;5008127;28;20022;-63
2023/06/01 04:29:02;;;;;;;12.93;5.10;;;;;;;-142.75;100.00;77674.75;5011580;28;20101;-63
2023/06/01 04:31:28;;;;;;;14.00;4.63;;;;;;;-142.75;100.00;77676.72;5009251;28;20030;-62
2023/06/01 04:33:56;;;;;;;11.18;5.05;;;;;;;-142.75;100.00;77653.09;5007060;28;20031;-63
2023/06/01 04:36:22;;;;;;;12.82;4.78;;;;;;;-142.75;100.00;77657.03;5007737;28;20080;-63
2023/06/01 04:38:53;;;;;;;13.50;5.10;;;;;;;-142.75;100.00;77641.28;5026168;28;20021;-65
2023/06/01 04:41:22;;;;;;;14.80;5.25;;;;;;;-142.75;100.00;77692.47;5027067;28;20028;-63
2023/06/01 04:43:52;;;;;;;18.58;5.13;;;;;;;-142.75;100.00;77684.59;5027223;28;20025;-62
2023/06/01 04:46:26;;;;;;;15.65;5.20;;;;;;;-142.75;100.00;77702.31;5027302;28;20108;-61
2023/06/01 04:48:52;;;;;;;12.60;5.15;;;;;;;-142.75;100.00;77706.25;5026940;28;20189;-62
2023/06/01 04:51:23;;;;;;;12.50;4.70;;;;;;;-142.75;100.00;77702.31;5025680;28;20025;-62
2023/06/01 04:53:51;;;;;;;12.10;4.93;;;;;;;-142.75;100.00;77686.56;5025626;28;20025;-64
2023/06/01 04:56:24;;;;;;;14.27;5.53;;;;;;;-142.75;100.00;77692.47;5025493;28;20041;-60
2023/06/01 04:58:50;;;;;;;12.32;5.40;;;;;;;-142.75;100.00;77714.13;5026796;28;20492;-63
2023/06/01 05:01:15;;;;;;;13.88;5.30;;;;;;;-142.75;100.00;77720.03;5025406;28;20040;-62
2023/06/01 05:03:45;;;;;;;16.67;5.50;;;;;;;-142.75;100.00;77712.16;5026576;28;20025;-64
2023/06/01 05:06:12;;;;;;;12.10;5.18;;;;;;;-142.75;100.00;77690.50;5025074;28;20029;-63
2023/06/01 05:08:41;;;;;;;11.02;5.60;;;;;;;-142.75;100.00;77684.59;5025886;28;20033;-63
2023/06/01 05:11:08;;;;;;;17.17;5.82;;;;;;;-142.75;100.00;77659.00;5025634;28;20155;-60
2023/06/01 05:13:40;;;;;;;10.63;5.65;;;;;;;-142.75;100.00;77645.22;5026665;28;20544;-58
2023/06/01 05:16:07;;;;;;;11.75;5.63;;;;;;;-142.75;100.00;77649.16;5007506;28;20499;-62
2023/06/01 05:18:33;;;;;;;10.57;5.47;;;;;;;-142.75;100.00;77653.09;5009901;28;20627;-62
2023/06/01 05:20:59;;;;;;;13.95;5.88;;;;;;;-142.75;100.00;77674.75;5026527;28;20057;-60
2023/06/01 05:23:25;;;;;;;14.63;6.20;;;;;;;-142.75;100.00;77684.59;5026460;28;20124;-65
2023/06/01 05:25:52;;;;;;;14.45;6.13;;;;;;;-142.75;100.00;77688.53;5025980;28;20644;-65
2023/06/01 05:28:17;;;;;;;13.13;7.03;;;;;;;-142.75;100.00;77700.34;5026155;28;20029;-63
2023/06/01 05:30:43;;;;;;;14.32;5.03;;;;;;;-142.75;100.00;77702.31;5026184;28;20375;-63
2023/06/01 05:33:08;;;;;;;13.75;5.95;;;;;;;-142.75;100.00;77678.69;5027065;28;20040;-59
2023/06/01 05:35:34;;;;;;;17.17;6.35;;;;;;;-142.75;100.00;77696.41;5026221;28;20386;-62
2023/06/01 05:37:59;;;;;;;14.50;5.82;;;;;;;-142.75;100.00;77690.50;5024977;28;20025;-62
2023/06/01 05:40:25;;;;;;;13.90;6.25;;;;;;;-142.75;100.00;77706.25;5025944;28;20036;-64
2023/06/01 05:42:50;;;;;;;13.57;5.88;;;;;;;-142.75;100.00;77704.28;5026021;28;20023;-63
2023/06/01 05:45:16;;;;;;;13.02;5.53;;;;;;;-142.75;100.00;77688.53;5025858;28;20026;-62
2023/06/01 05:47:41;;;;;;;13.85;6.10;;;;;;;-142.75;100.00;77660.97;5041156;28;20025;-63
2023/06/01 05:50:06;;;;;;;11.45;5.80;;;;;;;-142.75;100.00;77621.59;5024312;28;20449;-64
2023/06/01 05:52:32;;;;;;;12.40;6.80;;;;;;;-142.75;100.00;77617.66;5025557;28;20029;-59
2023/06/01 05:54:57;;;;;;;10.25;5.82;;;;;;;-142.75;100.00;77611.75;5026009;28;20033;-63
2023/06/01 05:57:23;;;;;;;11.43;5.45;;;;;;;-142.75;100.00;77629.47;5012576;28;20026;-64
2023/06/01 05:59:48;;;;;;;10.27;5.28;;;;;;;-142.75;100.00;77633.41;5014246;28;20969;-61
2023/06/01 06:02:14;;;;;;;14.23;5.03;;;;;;;-142.75;100.00;77629.47;5025782;28;20029;-63
2023/06/01 06:04:40;;;;;;;10.52;4.75;;;;;;;-142.75;100.00;77637.34;5026089;28;20025;-64
2023/06/01 06:07:05;;;;;;;12.15;5.07;;;;;;;-142.75;100.00;77623.56;5025467;28;20113;-63
2023/06/01 06:09:31;;;;;;;13.10;5.75;;;;;;;-142.75;100.00;77633.41;5040576;28;20688;-59
2023/06/01 06:11:57;;;;;;;7.78;4.18;;;;;;;-142.75;100.00;77629.47;5008012;28;20049;-62
2023/06/01 06:14:22;;;;;;;10.05;4.82;;;;;;;-142.75;100.00;77657.03;5025430;28;20025;-65
2023/06/01 06:16:47;;;;;;;10.68;4.45;;;;;;;-142.75;100.00;77649.16;5026288;28;20029;-63
2023/06/01 06:19:16;;;;;;;13.30;5.13;;;;;;;-142.75;100.00;77647.19;5026082;28;20119;-63
2023/06/01 06:21:41;;;;;;;14.18;5.10;;;;;;;-142.75;100.00;77629.47;5024902;28;20447;-63
2023/06/01 06:24:07;;;;;;;13.15;6.00;;;;;;;-142.75;100.00;77625.53;5024500;28;20033;-63
2023/06/01 06:26:32;;;;;;;14.43;5.47;;;;;;;-142.75;100.00;77609.78;5025846;28;20038;-62
2023/06/01 06:28:58;;;;;;;9.15;5.22;;;;;;;-142.75;100.00;77605.84;5026638;28;20045;-64
2023/06/01 06:31:23;;;;;;;10.55;5.40;;;;;;;-142.75;100.00;77596.00;5025666;28;20040;-63
2023/06/01 06:33:49;;;;;;;11.30;5.15;;;;;;;-142.75;100.00;77596.00;5023958;28;20108;-62
2023/06/01 06:36:15;;;;;;;12.27;5.38;;;;;;;-142.75;100.00;77605.84;5022315;28;20487;-61
2023/06/01 06:38:40;;;;;;;13.77;5.63;;;;;;;-142.75;100.00;77601.91;5023188;28;20032;-63
2023/06/01 06:41:05;;;;;;;13.70;6.18;;;;;;;-142.75;100.00;77607.81;5024218;28;20059;-64
2023/06/01 06:43:31;;;;;;;14.25;6.25;;;;;;;-142.75;100.00;77582.22;5040066;28;20029;-61
2023/06/01 06:45:56;;;;;;;10.52;5.25;;;;;;;-142.75;100.00;77592.06;5023397;28;20622;-63
2023/06/01 06:48:21;;;;;;;11.32;5.20;;;;;;;-142.75;100.00;77596.00;5023700;28;20029;-63
2023/06/01 06:50:47;;;;;;;11.13;5.93;;;;;;;-142.75;100.00;77578.28;5021979;28;20044;-60
2023/06/01 06:53:12;;;;;;;10.65;5.45;;;;;;;-142.75;100.00;77564.50;5022872;28;20072;-63
2023/06/01 06:55:37;;;;;;;10.18;4.93;;;;;;;-142.75;100.00;77572.38;5024219;28;20079;-62
2023/06/01 06:58:03;;;;;;;16.77;6.10;;;;;;;-142.75;100.00;77647.19;5024158;28;20049;-62
2023/06/01 07:00:28;;;;;;;10.95;4.80;;;;;;;-142.75;100.00;77617.66;5023674;28;20060;-60
2023/06/01 07:02:55;;;;;;;13.27;5.00;;;;;;;-142.75;100.00;77609.78;5024989;28;20109;-62
2023/06/01 07:05:20;;;;;;;10.05;4.60;;;;;;;-142.75;100.00;77603.88;5024578;28;20318;-63
2023/06/01 07:07:46;;;;;;;14.25;5.07;;;;;;;-142.75;100.00;77574.34;5024426;28;20693;-63
2023/06/01 07:10:12;;;;;;;14.52;5.93;;;;;;;-142.75;100.00;77546.78;5024366;28;20034;-64
2023/06/01 07:12:38;;;;;;;11.55;4.68;;;;;;;-142.75;100.00;77540.88;5024351;28;20104;-65
2023/06/01 07:15:04;;;;;;;8.85;4.53;;;;;;;-142.75;100.00;77534.97;5023646;28;20105;-63
2023/06/01 07:17:30;;;;;;;8.63;4.70;;;;;;;-142.75;100.00;77519.22;5024599;28;20030;-63
2023/06/01 07:19:55;;;;;;;12.88;4.72;;;;;;;-142.75;100.00;77505.44;5024236;28;20036;-64
2023/06/01 07:22:21;;;;;;;10.60;4.72;;;;;;;-142.75;100.00;77513.31;5023175;28;20639;-63
2023/06/01 07:24:47;;;;;;;11.90;4.97;;;;;;;-142.75;100.00;77501.50;5024313;28;20067;-63
2023/06/01 07:27:13;;;;;;;9.07;4.35;;;;;;;-142.75;100.00;77485.75;5025051;28;20022;-64
2023/06/01 07:29:39;;;;;;;9.73;4.25;;;;;;;-142.75;100.00;77456.22;5028433;28;20052;-64
2023/06/01 07:32:05;;;;;;;11.18;4.32;;;;;;;-142.75;100.00;77497.56;5028257;28;20277;-63
2023/06/01 07:34:33;;;;;;;12.70;4.13;;;;;;;-142.75;100.00;77456.22;5029063;28;20108;-63
2023/06/01 07:36:58;;;;;;;10.13;4.45;;;;;;;-142.75;100.00;77444.38;5043750;28;20041;-64
2023/06/01 07:39:24;;;;;;;12.13;4.13;;;;;;;-142.75;100.00;77448.34;5028318;28;20041;-65
2023/06/01 07:41:53;;;;;;;10.63;4.55;;;;;;;-142.75;100.00;77444.38;5025337;28;20538;-64
2023/06/01 07:44:18;;;;;;;10.60;3.85;;;;;;;-142.75;100.00;77466.03;5028161;28;20056;-63
2023/06/01 07:46:44;;;;;;;8.57;4.18;;;;;;;-142.75;100.00;77436.50;5052790;23;20478;-66
2023/06/01 07:49:13;;;;;;;9.80;4.13;;;;;;;-142.75;100.00;77458.16;5026103;28;20033;-66
2023/06/01 07:51:38;;;;;;;8.15;4.10;;;;;;;-142.75;100.00;77444.38;5026357;28;20029;-65
2023/06/01 07:54:04;;;;;;;10.90;4.22;;;;;;;-142.75;100.00;77436.50;5046619;28;20033;-64
2023/06/01 07:56:29;;;;;;;10.68;3.92;;;;;;;-142.75;100.00;77432.56;5047713;28;20021;-65
2023/06/01 07:58:55;;;;;;;10.13;4.68;;;;;;;-142.75;100.00;77432.56;5048091;28;20567;-65
2023/06/01 08:01:20;;;;;;;8.25;4.35;;;;;;;-142.75;100.00;77414.84;5029853;28;20125;-65
2023/06/01 08:03:45;;;;;;;14.00;4.82;;;;;;;-142.75;100.00;77399.09;5028882;28;20029;-65
2023/06/01 08:06:11;;;;;;;8.50;3.78;;;;;;;-142.75;100.00;77330.19;5028115;28;20029;-65
2023/06/01 08:08:36;;;;;;;9.88;4.10;;;;;;;-142.75;100.00;77251.44;5028009;28;20013;-65
2023/06/01 08:11:02;;;;;;;10.77;4.63;;;;;;;-142.75;100.00;77271.13;5027412;28;20025;-65
2023/06/01 08:13:27;;;;;;;11.02;3.90;;;;;;;-142.75;100.00;77263.25;5028126;28;20032;-65
2023/06/01 08:15:53;;;;;;;7.95;4.03;;;;;;;-142.75;100.00;77294.75;5027976;28;20025;-65
2023/06/01 08:18:22;;;;;;;6.22;3.10;;;;;;;-142.75;100.00;77282.94;5027957;28;20155;-65
2023/06/01 08:20:48;;;;;;;9.32;3.88;;;;;;;-142.75;100.00;77294.75;5027839;28;20642;-65
2023/06/01 08:23:16;;;;;;;7.57;3.85;;;;;;;-142.75;100.00;77294.75;5027839;28;20022;-65
2023/06/01 08:25:42;;;;;;;9.23;3.50;;;;;;;-142.75;100.00;77286.88;5027858;28;20036;-66
2023/06/01 08:28:08;;;;;;;7.57;3.47;;;;;;;-142.75;100.00;77255.38;5025990;28;20486;-65
2023/06/01 08:30:33;;;;;;;8.23;3.88;;;;;;;-142.75;100.00;77214.03;5033336;28;20029;-63
2023/06/01 08:32:58;;;;;;;7.55;4.10;;;;;;;-142.75;100.00;77290.81;5031062;28;20084;-65
2023/06/01 08:35:25;;;;;;;14.75;5.07;;;;;;;-142.75;100.00;77259.31;5027845;28;20060;-65
2023/06/01 08:37:50;;;;;;;10.25;4.10;;;;;;;-142.75;100.00;77267.19;5028559;28;20554;-65
2023/06/01 08:40:16;;;;;;;8.00;3.97;;;;;;;-142.75;100.00;77251.44;5034128;28;20138;-65
2023/06/01 08:42:45;;;;;;;11.35;4.18;;;;;;;-142.75;100.00;77231.75;5030902;28;20052;-62
2023/06/01 08:45:15;;;;;;;11.45;4.65;;;;;;;-142.75;100.00;77219.94;5027835;28;20052;-63
2023/06/01 08:47:41;;;;;;;11.07;4.00;;;;;;;-142.75;100.00;77176.63;5030795;28;20083;-64
2023/06/01 08:50:09;;;;;;;10.13;3.42;;;;;;;-142.75;100.00;77178.59;5047626;28;20029;-63
2023/06/01 08:52:37;;;;;;;10.23;4.15;;;;;;;-142.75;100.00;77188.44;5026767;28;20029;-63
2023/06/01 08:55:03;;;;;;;10.27;3.65;;;;;;;-142.75;100.00;77139.22;5027228;28;21884;-63
2023/06/01 08:57:29;;;;;;;8.85;3.72;;;;;;;-142.75;100.00;77105.75;5042403;28;20029;-63
2023/06/01 08:59:55;;;;;;;13.15;4.45;;;;;;;-142.75;100.00;77070.31;5035110;28;20025;-63
2023/06/01 09:02:21;;;;;;;7.80;3.10;;;;;;;-142.75;100.00;77068.34;5037372;28;20029;-63
2023/06/01 09:04:46;;;;;;;6.78;3.40;;;;;;;-142.75;100.00;77044.72;5030290;28;20021;-64
2023/06/01 09:07:13;;;;;;;8.02;3.65;;;;;;;-142.75;100.00;77019.13;5047283;28;20029;-63
2023/06/01 09:09:39;;;;;;;9.10;3.85;;;;;;;-142.75;100.00;77017.16;5026773;28;20033;-63
2023/06/01 09:12:17;;;;;;;10.52;4.20;;;;;;;-142.75;100.00;77023.06;5031378;28;20051;-64
2023/06/01 09:14:43;;;;;;;8.55;3.33;;;;;;;-142.75;100.00;77015.19;5033395;28;20029;-65
2023/06/01 09:17:22;;;;;;;6.95;3.20;;;;;;;-142.75;100.00;76946.28;5037000;28;20087;-64
2023/06/01 09:19:53;;;;;;;7.18;3.70;;;;;;;-142.75;100.00;76912.81;5032064;28;20421;-63
2023/06/01 09:22:18;;;;;;;6.13;3.35;;;;;;;-142.75;100.00;76928.56;5034152;28;20055;-64
2023/06/01 09:24:56;;;;;;;9.30;4.05;;;;;;;-142.75;100.00;76916.75;5036630;28;20398;-64
2023/06/01 09:27:21;;;;;;;7.55;3.63;;;;;;;-142.75;100.00;76891.16;5033907;28;20017;-63
2023/06/01 09:29:54;;;;;;;8.93;4.10;;;;;;;-142.75;100.00;76859.66;5034396;28;20036;-64
2023/06/01 09:32:23;;;;;;;8.80;4.13;;;;;;;-142.75;100.00;76873.44;5028347;28;20057;-64
2023/06/01 09:34:48;;;;;;;8.45;3.58;;;;;;;-142.75;100.00;76883.28;5027709;28;20040;-65
2023/06/01 09:37:14;;;;;;;8.73;4.25;;;;;;;-142.75;100.00;76934.47;5026905;28;20482;-65
2023/06/01 09:39:39;;;;;;;6.75;3.90;;;;;;;-142.75;100.00;76904.94;5027037;28;20032;-64
2023/06/01 09:42:09;;;;;;;7.40;3.63;;;;;;;-142.75;100.00;76877.38;5026665;28;20444;-65
2023/06/01 09:44:36;;;;;;;11.55;3.72;;;;;;;-142.75;100.00;76865.56;5026201;28;20029;-63
2023/06/01 09:47:06;;;;;;;10.75;3.83;;;;;;;-142.75;99.92;76857.69;5026886;28;20034;-64
2023/06/01 09:49:36;;;;;;;9.63;4.38;;;;;;;-142.75;97.07;76834.06;5026955;28;20516;-64
2023/06/01 09:52:07;;;;;;;7.85;3.80;;;;;;;-142.75;98.65;76826.19;5024626;28;20021;-65
2023/06/01 09:54:44;;;;;;;8.48;4.15;;;;;;;-142.75;98.02;76808.50;5027117;28;20129;-64
2023/06/01 09:57:10;;;;;;;7.45;3.85;;;;;;;-142.75;100.00;76806.50;5026579;28;20018;-64
2023/06/01 09:59:44;;;;;;;8.50;4.18;;;;;;;-142.75;93.34;76794.69;5026811;28;20029;-64
2023/06/01 10:02:14;;;;;;;9.13;3.83;;;;;;;-142.75;94.37;76780.94;5026316;28;20374;-64
2023/06/01 10:04:44;;;;;;;8.93;4.45;;;;;;;-142.75;93.71;76749.44;5027156;28;20033;-64
2023/06/01 10:07:12;;;;;;;10.57;4.55;;;;;;;-142.75;96.74;76727.78;5026473;28;20067;-64
2023/06/01 10:09:40;;;;;;;9.15;4.32;;;;;;;-142.75;94.51;76714.00;5026367;28;20025;-64
2023/06/01 10:12:07;;;;;;;11.32;4.30;;;;;;;-142.75;91.42;76715.97;5026276;28;20041;-63
2023/06/01 10:14:33;;;;;;;6.95;4.30;;;;;;;-142.75;93.34;76708.09;5025382;28;20033;-64
2023/06/01 10:16:58;;;;;;;8.75;3.92;;;;;;;-142.75;90.67;76708.09;5026409;28;20021;-63
2023/06/01 10:19:24;;;;;;;10.95;4.47;;;;;;;-142.75;90.07;76692.34;5028084;28;20603;-63
2023/06/01 10:21:50;;;;;;;12.07;4.47;;;;;;;-142.75;89.93;76692.34;5036967;28;20025;-63
2023/06/01 10:24:18;;;;;;;9.80;4.57;;;;;;;-142.75;89.03;76684.47;5026340;28;21706;-64
2023/06/01 10:27:11;;;;;;;7.32;4.35;;;;;;;-142.75;88.62;76664.78;5026077;28;20052;-64
2023/06/01 10:29:37;;;;;;;8.48;4.82;;;;;;;-142.75;91.54;76692.34;5026328;28;20665;-63
2023/06/01 10:32:03;;;;;;;10.85;4.45;;;;;;;-142.75;87.96;76643.13;5026066;28;20061;-63
2023/06/01 10:34:40;;;;;;;10.40;4.60;;;;;;;-142.75;86.60;76627.38;5026854;28;20053;-64
2023/06/01 10:37:05;;;;;;;9.88;4.75;;;;;;;-142.75;86.14;76633.28;5025872;28;20666;-63
2023/06/01 10:39:32;;;;;;;8.02;4.55;;;;;;;-142.75;85.26;76615.56;5026261;28;20044;-64
2023/06/01 10:42:17;;;;;;;9.45;4.43;;;;;;;-142.75;86.39;76597.84;5025930;28;20025;-64
2023/06/01 10:44:43;;;;;;;9.63;4.37;;;;;;;-142.75;85.66;76609.66;5014338;28;20045;-64
2023/06/01 10:47:11;;;;;;;7.40;4.03;;;;;;;-142.75;86.01;76597.84;5025586;28;20024;-64
2023/06/01 10:49:48;;;;;;;9.48;4.20;;;;;;;-142.75;85.05;76627.38;5025923;28;20546;-64
2023/06/01 10:52:27;;;;;;;7.82;4.20;;;;;;;-142.75;86.46;76613.59;5025772;28;20224;-64
2023/06/01 10:55:16;;;;;;;10.20;4.28;;;;;;;-142.75;86.27;76609.66;5025922;28;20029;-63
2023/06/01 10:57:45;;;;;;;10.93;4.85;;;;;;;-142.75;87.26;76593.91;5025570;28;20017;-64
2023/06/01 11:00:26;;;;;;;8.40;4.25;;;;;;;-142.75;84.73;76582.09;5040818;28;20017;-64
2023/06/01 11:02:57;;;;;;;8.95;4.75;;;;;;;-142.75;83.39;76570.28;5025441;28;20029;-64
2023/06/01 11:05:38;;;;;;;8.43;3.90;;;;;;;-142.75;84.38;76546.66;5026294;28;20629;-63